createdAt,value
2018-07-26T00:01:08.031Z,55.89
2018-07-26T00:03:36.881Z,55.39
2018-07-26T00:06:05.748Z,56.28
2018-07-26T00:08:34.671Z,56.96
2018-07-26T00:11:03.573Z,55.94
2018-07-26T00:13:32.455Z,57.57
2018-07-26T00:16:01.490Z,58.21
2018-07-26T00:18:30.407Z,58.17
2018-07-26T00:20:59.309Z,57.21
2018-07-26T00:23:28.217Z,57.41
2018-07-26T00:25:57.048Z,58.15
2018-07-26T00:28:25.845Z,58.00
2018-07-26T00:30:54.714Z,58.93
2018-07-26T00:33:23.726Z,59.52
2018-07-26T00:35:52.584Z,59.23
2018-07-26T00:38:21.452Z,60.31
2018-07-26T00:40:50.306Z,59.86
2018-07-26T00:43:19.191Z,59.64
2018-07-26T00:45:48.130Z,61.02
2018-07-26T00:48:17.166Z,60.49
2018-07-26T00:50:46.024Z,60.08
2018-07-26T00:53:14.888Z,60.72
2018-07-26T00:55:43.731Z,61.28
2018-07-26T00:58:12.672Z,60.38
2018-07-26T01:00:41.585Z,60.40
2018-07-26T01:03:10.494Z,60.89
2018-07-26T01:05:39.377Z,60.34
2018-07-26T01:08:08.293Z,61.73
2018-07-26T01:10:37.206Z,60.38
2018-07-26T01:13:06.169Z,60.24
2018-07-26T01:15:35.153Z,60.38
2018-07-26T01:18:04.068Z,59.99
2018-07-26T01:20:33.002Z,60.74
2018-07-26T01:23:01.938Z,60.64
2018-07-26T01:25:30.897Z,61.67
2018-07-26T01:27:59.885Z,61.03
2018-07-26T01:30:28.856Z,61.37
2018-07-26T01:32:57.741Z,61.36
2018-07-26T01:35:26.632Z,61.49
2018-07-26T01:37:55.630Z,61.20
2018-07-26T01:40:24.624Z,63.06
2018-07-26T01:43:04.544Z,62.84
2018-07-26T01:45:33.386Z,62.16
2018-07-26T01:48:02.237Z,63.51
2018-07-26T01:50:31.135Z,62.96
2018-07-26T01:53:00.073Z,62.36
2018-07-26T01:55:29.017Z,62.12
2018-07-26T01:57:57.908Z,62.79
2018-07-26T02:00:26.758Z,62.29
2018-07-26T02:02:55.592Z,62.84
2018-07-26T02:05:24.483Z,62.71
2018-07-26T02:07:53.332Z,62.01
2018-07-26T02:10:22.184Z,62.67
2018-07-26T02:12:51.089Z,62.45
2018-07-26T02:15:19.938Z,62.62
2018-07-26T02:17:48.776Z,61.81
2018-07-26T02:20:17.662Z,62.39
2018-07-26T02:22:46.562Z,62.47
2018-07-26T02:25:15.449Z,62.24
2018-07-26T02:27:44.401Z,61.90
2018-07-26T02:30:13.256Z,62.20
2018-07-26T02:32:42.078Z,63.86
2018-07-26T02:35:10.969Z,63.70
2018-07-26T02:37:39.962Z,63.25
2018-07-26T02:40:08.804Z,63.32
2018-07-26T02:42:37.600Z,62.68
2018-07-26T02:45:06.474Z,62.36
2018-07-26T02:47:35.378Z,63.25
2018-07-26T02:50:04.303Z,62.93
2018-07-26T02:52:33.126Z,62.40
2018-07-26T02:55:01.934Z,62.52
2018-07-26T02:57:30.812Z,62.62
2018-07-26T02:59:59.604Z,62.70
2018-07-26T03:02:28.412Z,61.44
2018-07-26T03:04:57.279Z,61.17
2018-07-26T03:07:26.086Z,63.28
2018-07-26T03:09:54.932Z,63.05
2018-07-26T03:12:23.742Z,63.46
2018-07-26T03:14:52.641Z,64.24
2018-07-26T03:17:21.521Z,63.69
2018-07-26T03:19:51.091Z,63.82
2018-07-26T03:22:19.877Z,64.88
2018-07-26T03:24:48.685Z,64.86
2018-07-26T03:27:17.540Z,64.61
2018-07-26T03:29:46.522Z,64.42
2018-07-26T03:32:15.537Z,64.84
2018-07-26T03:34:44.477Z,64.38
2018-07-26T03:37:13.325Z,65.41
2018-07-26T03:39:42.238Z,64.95
2018-07-26T03:42:11.167Z,65.35
2018-07-26T03:44:40.078Z,64.83
2018-07-26T03:47:08.925Z,64.25
2018-07-26T03:49:37.886Z,64.28
2018-07-26T03:52:06.925Z,63.94
2018-07-26T03:54:35.936Z,64.90
2018-07-26T03:57:04.938Z,64.70
2018-07-26T03:59:33.877Z,64.34
2018-07-26T04:02:02.747Z,63.82
2018-07-26T04:04:31.641Z,63.25
2018-07-26T04:07:02.883Z,63.95
2018-07-26T04:09:31.874Z,63.54
2018-07-26T04:12:00.801Z,62.63
2018-07-26T04:14:29.704Z,59.34
2018-07-26T04:16:58.553Z,59.73
2018-07-26T04:19:27.454Z,62.06
2018-07-26T04:21:56.574Z,62.56
2018-07-26T04:24:25.497Z,64.08
2018-07-26T04:26:54.364Z,63.44
2018-07-26T04:29:23.208Z,64.21
2018-07-26T04:31:52.146Z,64.61
2018-07-26T04:34:21.005Z,64.08
2018-07-26T04:36:49.866Z,64.35
2018-07-26T04:39:18.680Z,65.43
2018-07-26T04:41:47.609Z,64.44
2018-07-26T04:44:16.439Z,63.80
2018-07-26T04:46:45.479Z,64.47
2018-07-26T04:49:14.412Z,64.93
2018-07-26T04:51:43.232Z,64.79
2018-07-26T04:54:12.066Z,64.64
2018-07-26T04:56:41.020Z,63.67
2018-07-26T04:59:09.809Z,64.62
2018-07-26T05:01:38.690Z,64.48
2018-07-26T05:04:07.567Z,63.04
2018-07-26T05:06:36.370Z,62.51
2018-07-26T05:09:07.202Z,62.53
2018-07-26T05:11:36.056Z,62.45
2018-07-26T05:14:04.902Z,62.83
2018-07-26T05:16:33.896Z,62.02
2018-07-26T05:19:02.890Z,61.68
2018-07-26T05:21:31.699Z,62.07
2018-07-26T05:24:00.809Z,61.99
2018-07-26T05:26:29.741Z,62.05
2018-07-26T05:28:58.676Z,62.44
2018-07-26T05:31:27.598Z,61.88
2018-07-26T05:33:56.483Z,62.28
2018-07-26T05:36:25.365Z,60.76
2018-07-26T05:38:54.923Z,62.02
2018-07-26T05:41:23.969Z,62.62
2018-07-26T05:43:52.777Z,62.08
2018-07-26T05:46:21.724Z,62.81
2018-07-26T05:48:50.645Z,62.39
2018-07-26T05:51:19.468Z,61.17
2018-07-26T05:53:48.292Z,61.34
2018-07-26T05:56:17.242Z,61.48
2018-07-26T05:58:46.181Z,62.14
2018-07-26T06:01:15.079Z,61.77
2018-07-26T06:03:44.021Z,62.30
2018-07-26T06:06:13.041Z,60.86
2018-07-26T06:08:41.996Z,61.22
2018-07-26T06:11:10.905Z,60.63
2018-07-26T06:13:39.778Z,61.34
2018-07-26T06:16:08.671Z,59.71
2018-07-26T06:18:38.340Z,60.52
2018-07-26T06:21:07.404Z,58.88
2018-07-26T06:23:36.206Z,60.23
2018-07-26T06:26:05.298Z,60.93
2018-07-26T06:28:34.216Z,60.96
2018-07-26T06:31:03.104Z,59.75
2018-07-26T06:33:32.117Z,62.13
2018-07-26T06:36:00.979Z,60.53
2018-07-26T06:38:31.214Z,61.12
2018-07-26T06:41:01.152Z,60.71
2018-07-26T06:43:30.052Z,59.54
2018-07-26T06:45:58.972Z,61.18
2018-07-26T06:48:27.766Z,60.86
2018-07-26T06:50:56.578Z,60.00
2018-07-26T06:53:25.363Z,60.54
2018-07-26T06:55:54.325Z,61.10
2018-07-26T06:58:23.092Z,60.92
2018-07-26T07:00:52.042Z,59.13
2018-07-26T07:03:20.969Z,59.71
2018-07-26T07:05:49.850Z,60.02
2018-07-26T07:08:18.737Z,59.72
2018-07-26T07:10:47.683Z,58.56
2018-07-26T07:13:16.628Z,59.85
2018-07-26T07:15:45.422Z,59.16
2018-07-26T07:18:14.296Z,59.10
2018-07-26T07:20:43.096Z,59.58
2018-07-26T07:23:11.917Z,57.84
2018-07-26T07:25:40.793Z,57.69
2018-07-26T07:28:09.606Z,58.07
2018-07-26T07:30:38.384Z,58.04
2018-07-26T07:33:07.236Z,57.21
2018-07-26T07:35:36.001Z,55.21
2018-07-26T07:38:04.867Z,57.72
2018-07-26T07:40:33.762Z,55.57
2018-07-26T07:43:02.553Z,57.86
2018-07-26T07:45:31.334Z,56.68
2018-07-26T07:48:00.116Z,55.67
2018-07-26T07:50:29.029Z,54.16
2018-07-26T07:52:57.950Z,56.24
2018-07-26T07:55:26.767Z,55.03
2018-07-26T07:57:55.580Z,54.35
2018-07-26T08:00:24.446Z,54.23
2018-07-26T08:02:53.365Z,52.99
2018-07-26T08:05:22.189Z,52.65
2018-07-26T08:07:50.991Z,52.51
2018-07-26T08:10:19.877Z,52.69
2018-07-26T08:12:48.681Z,50.85
2018-07-26T08:15:17.550Z,49.86
2018-07-26T08:17:46.422Z,50.19
2018-07-26T08:20:15.352Z,48.76
2018-07-26T08:22:44.166Z,49.37
2018-07-26T08:25:13.013Z,50.64
2018-07-26T08:27:41.823Z,49.30
2018-07-26T08:30:11.728Z,51.36
2018-07-26T08:32:40.553Z,52.10
2018-07-26T08:35:09.499Z,53.33
2018-07-26T08:37:38.261Z,52.40
2018-07-26T08:40:07.393Z,52.26
2018-07-26T08:42:36.304Z,52.07
2018-07-26T08:45:05.153Z,52.92
2018-07-26T08:47:33.980Z,51.03
2018-07-26T08:50:02.781Z,52.43
2018-07-26T08:52:31.578Z,50.78
2018-07-26T08:55:00.447Z,51.93
2018-07-26T08:57:29.294Z,51.50
2018-07-26T08:59:58.064Z,50.46
2018-07-26T09:02:26.962Z,52.05
2018-07-26T09:04:55.775Z,49.36
2018-07-26T09:07:24.614Z,50.71
2018-07-26T09:09:53.472Z,50.10
2018-07-26T09:12:22.405Z,47.76
2018-07-26T09:14:51.165Z,47.88
2018-07-26T09:17:19.980Z,47.76
2018-07-26T09:19:48.850Z,48.38
2018-07-26T09:22:17.634Z,47.22
2018-07-26T09:24:46.613Z,47.59
2018-07-26T09:27:15.390Z,46.92
2018-07-26T09:29:44.213Z,45.00
2018-07-26T09:32:13.774Z,44.21
2018-07-26T09:34:42.571Z,45.73
2018-07-26T09:37:11.414Z,45.00
2018-07-26T09:39:40.330Z,45.78
2018-07-26T09:42:09.084Z,45.58
2018-07-26T09:44:37.903Z,45.15
2018-07-26T09:47:06.739Z,44.41
2018-07-26T09:49:35.521Z,45.35
2018-07-26T09:52:04.357Z,44.26
2018-07-26T09:54:33.184Z,42.91
2018-07-26T09:57:02.023Z,43.68
2018-07-26T09:59:30.854Z,43.71
2018-07-26T10:01:59.696Z,42.12
2018-07-26T10:04:28.569Z,42.45
2018-07-26T10:06:57.394Z,40.53
2018-07-26T10:09:26.277Z,40.71
2018-07-26T10:11:55.187Z,39.25
2018-07-26T10:14:24.001Z,39.15
2018-07-26T10:16:52.855Z,38.52
2018-07-26T10:19:21.750Z,37.72
2018-07-26T10:21:50.564Z,38.40
2018-07-26T10:24:19.550Z,41.05
2018-07-26T10:26:48.334Z,40.05
2018-07-26T10:29:17.093Z,38.90
2018-07-26T10:31:46.017Z,38.29
2018-07-26T10:34:14.796Z,36.17
2018-07-26T10:36:43.563Z,37.12
2018-07-26T10:39:12.817Z,37.41
2018-07-26T10:41:41.678Z,37.39
2018-07-26T10:44:10.553Z,38.15
2018-07-26T10:46:39.526Z,37.52
2018-07-26T10:49:08.384Z,37.23
2018-07-26T10:51:37.300Z,37.89
2018-07-26T10:54:06.300Z,39.14
2018-07-26T10:56:35.192Z,38.78
2018-07-26T10:59:04.025Z,40.05
2018-07-26T11:01:32.882Z,36.44
2018-07-26T11:04:01.765Z,36.09
2018-07-26T11:06:30.634Z,38.94
2018-07-26T11:08:59.506Z,39.49
2018-07-26T11:11:28.313Z,38.42
2018-07-26T11:13:57.146Z,36.96
2018-07-26T11:16:26.043Z,38.48
2018-07-26T11:18:54.985Z,36.81
2018-07-26T11:21:23.779Z,38.71
2018-07-26T11:23:52.659Z,37.01
2018-07-26T11:26:21.503Z,34.43
2018-07-26T11:28:50.262Z,35.38
2018-07-26T11:31:19.268Z,37.38
2018-07-26T11:33:48.063Z,35.32
2018-07-26T11:36:16.951Z,34.54
2018-07-26T11:38:45.909Z,36.77
2018-07-26T11:41:14.943Z,36.03
2018-07-26T11:43:43.776Z,35.55
2018-07-26T11:46:12.732Z,34.91
2018-07-26T11:48:41.893Z,35.05
2018-07-26T11:51:10.687Z,35.41
2018-07-26T11:53:39.626Z,35.38
2018-07-26T11:56:08.529Z,36.48
2018-07-26T11:58:37.417Z,38.07
2018-07-26T12:01:06.393Z,35.41
2018-07-26T12:03:35.212Z,33.81
2018-07-26T12:06:04.156Z,37.46
2018-07-26T12:08:33.038Z,34.48
2018-07-26T12:11:01.921Z,37.16
2018-07-26T12:13:30.879Z,36.30
2018-07-26T12:15:59.739Z,37.58
2018-07-26T12:18:28.573Z,36.51
2018-07-26T12:20:57.503Z,35.91
2018-07-26T12:23:26.411Z,35.86
2018-07-26T12:25:55.372Z,34.97
2018-07-26T12:28:24.237Z,34.96
2018-07-26T12:30:53.173Z,35.14
2018-07-26T12:33:22.090Z,33.99
2018-07-26T12:35:50.992Z,33.53
2018-07-26T12:38:19.836Z,34.62
2018-07-26T12:40:48.702Z,34.85
2018-07-26T12:43:17.541Z,34.63
2018-07-26T12:45:46.439Z,35.95
2018-07-26T12:48:15.264Z,37.20
2018-07-26T12:50:44.384Z,35.55
2018-07-26T12:53:13.313Z,36.55
2018-07-26T12:55:42.166Z,35.18
2018-07-26T12:58:11.013Z,34.52
2018-07-26T13:00:40.009Z,34.49
2018-07-26T13:03:08.960Z,32.70
2018-07-26T13:05:37.936Z,37.52
2018-07-26T13:08:06.904Z,38.07
2018-07-26T13:10:36.670Z,36.77
2018-07-26T13:13:05.728Z,36.30
2018-07-26T13:15:34.707Z,35.54
2018-07-26T13:18:03.571Z,36.29
2018-07-26T13:20:32.616Z,34.04
2018-07-26T13:23:01.603Z,34.59
2018-07-26T13:25:30.542Z,34.49
2018-07-26T13:27:59.436Z,34.51
2018-07-26T13:30:28.316Z,37.48
2018-07-26T13:32:57.254Z,37.70
2018-07-26T13:35:26.271Z,36.00
2018-07-26T13:37:55.161Z,36.11
2018-07-26T13:40:24.092Z,37.94
2018-07-26T13:42:53.103Z,37.62
2018-07-26T13:45:22.020Z,38.33
2018-07-26T13:47:50.929Z,39.49
2018-07-26T13:50:19.723Z,41.22
2018-07-26T13:52:48.592Z,40.45
2018-07-26T13:55:17.503Z,40.75
2018-07-26T13:57:46.414Z,40.45
2018-07-26T14:00:15.402Z,38.44
2018-07-26T14:02:44.558Z,38.72
2018-07-26T14:05:13.504Z,39.27
2018-07-26T14:07:42.368Z,39.24
2018-07-26T14:10:11.189Z,40.06
2018-07-26T14:12:40.243Z,39.70
2018-07-26T14:15:10.597Z,38.92
2018-07-26T14:17:39.968Z,40.18
2018-07-26T14:20:10.820Z,42.13
2018-07-26T14:22:40.143Z,40.41
2018-07-26T14:25:09.086Z,40.96
2018-07-26T14:27:38.028Z,39.63
2018-07-26T14:30:08.176Z,41.55
2018-07-26T14:32:37.073Z,41.48
2018-07-26T14:35:06.175Z,41.08
2018-07-26T14:37:35.148Z,42.35
2018-07-26T14:40:04.088Z,42.00
2018-07-26T14:42:32.910Z,44.21
2018-07-26T14:45:01.811Z,45.73
2018-07-26T14:47:30.657Z,45.67
2018-07-26T14:49:59.545Z,47.05
2018-07-26T14:52:28.486Z,46.77
2018-07-26T14:54:57.311Z,47.42
2018-07-26T14:57:26.171Z,48.63
2018-07-26T14:59:55.102Z,50.74
2018-07-26T15:02:24.014Z,49.67
2018-07-26T15:04:52.835Z,48.84
2018-07-26T15:07:21.730Z,49.37
2018-07-26T15:09:50.667Z,50.28
2018-07-26T15:12:19.601Z,51.46
2018-07-26T15:14:48.467Z,52.46
2018-07-26T15:17:17.284Z,52.69
2018-07-26T15:19:46.138Z,52.68
2018-07-26T15:22:15.014Z,53.74
2018-07-26T15:24:43.860Z,54.33
2018-07-26T15:27:12.792Z,54.71
2018-07-26T15:29:41.695Z,57.16
2018-07-26T15:32:10.665Z,58.56
2018-07-26T15:34:39.483Z,59.38
2018-07-26T15:37:08.385Z,58.78
2018-07-26T15:39:37.321Z,57.43
2018-07-26T15:42:06.269Z,57.73
2018-07-26T15:44:35.148Z,55.22
2018-07-26T15:47:04.098Z,54.20
2018-07-26T15:49:33.045Z,54.56
2018-07-26T15:52:01.969Z,53.71
2018-07-26T15:54:30.865Z,54.71
2018-07-26T15:56:59.752Z,56.38
2018-07-26T15:59:28.587Z,55.56
2018-07-26T16:01:57.610Z,53.68
2018-07-26T16:04:26.484Z,51.92
2018-07-26T16:06:55.371Z,52.12
2018-07-26T16:09:24.200Z,53.25
2018-07-26T16:11:53.012Z,53.46
2018-07-26T16:14:21.944Z,52.77
2018-07-26T16:16:50.798Z,53.79
2018-07-26T16:19:19.677Z,56.31
2018-07-26T16:21:48.578Z,52.75
2018-07-26T16:24:17.464Z,52.93
2018-07-26T16:26:46.328Z,52.41
2018-07-26T16:29:15.241Z,55.44
2018-07-26T16:31:44.044Z,56.72
2018-07-26T16:34:12.896Z,54.54
2018-07-26T16:36:41.921Z,52.89
2018-07-26T16:39:12.225Z,52.61
2018-07-26T16:41:41.066Z,52.04
2018-07-26T16:44:09.946Z,52.62
2018-07-26T16:46:38.912Z,54.24
2018-07-26T16:49:08.337Z,54.13
2018-07-26T16:51:37.263Z,53.52
2018-07-26T16:54:06.165Z,53.90
2018-07-26T16:56:35.008Z,54.36
2018-07-26T16:59:03.864Z,54.74
2018-07-26T17:01:32.819Z,54.15
2018-07-26T17:04:01.719Z,55.13
2018-07-26T17:06:30.508Z,55.04
2018-07-26T17:08:59.432Z,55.35
2018-07-26T17:11:28.467Z,54.49
2018-07-26T17:13:57.356Z,55.01
2018-07-26T17:16:26.244Z,54.26
2018-07-26T17:18:55.161Z,54.07
2018-07-26T17:21:23.999Z,53.90
2018-07-26T17:23:52.825Z,54.95
2018-07-26T17:26:21.756Z,55.45
2018-07-26T17:28:50.724Z,57.31
2018-07-26T17:31:19.591Z,58.04
2018-07-26T17:33:48.503Z,58.95
2018-07-26T17:36:17.258Z,58.01
2018-07-26T17:38:46.201Z,59.42
2018-07-26T17:41:15.073Z,60.74
2018-07-26T17:43:43.932Z,62.82
2018-07-26T17:46:12.742Z,63.25
2018-07-26T17:48:41.637Z,64.43
2018-07-26T17:51:10.522Z,64.76
2018-07-26T17:53:39.397Z,63.86
2018-07-26T17:56:08.355Z,63.17
2018-07-26T17:58:37.207Z,61.45
2018-07-26T18:01:06.174Z,61.86
2018-07-26T18:03:35.012Z,62.25
2018-07-26T18:06:04.006Z,61.94
2018-07-26T18:08:32.854Z,62.33
2018-07-26T18:11:01.729Z,64.01
2018-07-26T18:13:30.588Z,64.12
2018-07-26T18:15:59.401Z,64.37
2018-07-26T18:18:28.360Z,64.49
2018-07-26T18:20:57.215Z,63.52
2018-07-26T18:23:26.047Z,64.11
2018-07-26T18:25:54.913Z,63.65
2018-07-26T18:28:23.976Z,64.85
2018-07-26T18:30:52.780Z,64.53
2018-07-26T18:33:21.716Z,64.00
2018-07-26T18:35:50.592Z,63.14
2018-07-26T18:38:19.556Z,64.14
2018-07-26T18:40:48.372Z,64.81
2018-07-26T18:43:17.250Z,64.01
2018-07-26T18:45:46.123Z,64.69
2018-07-26T18:48:14.961Z,63.63
2018-07-26T18:50:43.838Z,63.67
2018-07-26T18:53:12.838Z,63.87
2018-07-26T18:55:41.670Z,65.31
2018-07-26T18:58:10.537Z,64.72
2018-07-26T19:00:39.365Z,65.75
2018-07-26T19:03:08.304Z,64.68
2018-07-26T19:05:37.237Z,65.08
2018-07-26T19:08:07.066Z,65.74
2018-07-26T19:10:35.833Z,66.12
2018-07-26T19:13:04.680Z,66.28
2018-07-26T19:15:33.521Z,66.17
2018-07-26T19:18:02.408Z,65.63
2018-07-26T19:20:31.226Z,65.77
2018-07-26T19:23:00.043Z,65.06
2018-07-26T19:25:29.643Z,65.33
2018-07-26T19:27:59.056Z,65.20
2018-07-26T19:30:27.843Z,65.01
2018-07-26T19:32:56.690Z,63.93
2018-07-26T19:35:25.498Z,64.72
2018-07-26T19:37:54.344Z,64.57
2018-07-26T19:40:23.194Z,64.54
2018-07-26T19:42:52.052Z,64.90
2018-07-26T19:45:20.908Z,65.01
2018-07-26T19:47:49.754Z,65.13
2018-07-26T19:50:18.568Z,66.21
2018-07-26T19:52:47.385Z,65.73
2018-07-26T19:55:16.257Z,65.06
2018-07-26T19:57:45.047Z,64.98
2018-07-26T20:00:13.895Z,65.09
2018-07-26T20:02:42.837Z,66.23
2018-07-26T20:05:11.669Z,66.12
2018-07-26T20:07:40.776Z,66.38
2018-07-26T20:10:11.885Z,65.60
2018-07-26T20:12:41.129Z,63.52
2018-07-26T20:15:10.014Z,64.01
2018-07-26T20:17:38.923Z,64.35
2018-07-26T20:20:09.962Z,64.81
2018-07-26T20:22:38.779Z,63.84
2018-07-26T20:25:07.789Z,63.93
2018-07-26T20:27:36.581Z,64.42
2018-07-26T20:30:07.307Z,63.64
2018-07-26T20:32:36.277Z,64.30
2018-07-26T20:35:05.498Z,63.74
2018-07-26T20:37:34.337Z,63.30
2018-07-26T20:40:03.286Z,63.52
2018-07-26T20:42:32.128Z,63.91
2018-07-26T20:45:01.024Z,64.56
2018-07-26T20:47:29.950Z,63.07
2018-07-26T20:49:58.770Z,63.76
2018-07-26T20:52:27.612Z,63.88
2018-07-26T20:54:56.493Z,63.81
2018-07-26T20:57:25.301Z,63.64
2018-07-26T20:59:54.040Z,63.78
2018-07-26T21:02:22.949Z,63.81
2018-07-26T21:04:51.752Z,64.22
2018-07-26T21:07:21.216Z,65.29
2018-07-26T21:09:50.030Z,65.48
2018-07-26T21:12:18.840Z,65.38
2018-07-26T21:14:47.647Z,65.33
2018-07-26T21:17:16.481Z,65.55
2018-07-26T21:19:45.293Z,65.50
2018-07-26T21:22:14.093Z,64.99
2018-07-26T21:24:42.932Z,66.50
2018-07-26T21:27:11.780Z,66.63
2018-07-26T21:29:40.727Z,66.65
2018-07-26T21:32:09.603Z,66.40
2018-07-26T21:34:38.364Z,65.48
2018-07-26T21:37:07.166Z,64.96
2018-07-26T21:39:36.049Z,64.65
2018-07-26T21:42:04.923Z,65.24
2018-07-26T21:44:33.776Z,65.20
2018-07-26T21:47:02.609Z,65.20
2018-07-26T21:49:31.425Z,64.88
2018-07-26T21:52:00.247Z,63.71
2018-07-26T21:54:29.136Z,63.52
2018-07-26T21:56:58.042Z,63.84
2018-07-26T21:59:26.908Z,63.93
2018-07-26T22:01:55.865Z,63.34
2018-07-26T22:04:24.734Z,63.72
2018-07-26T22:06:53.610Z,63.14
2018-07-26T22:09:22.515Z,62.87
2018-07-26T22:11:51.335Z,63.07
2018-07-26T22:14:20.141Z,63.17
2018-07-26T22:16:49.063Z,62.86
2018-07-26T22:19:17.925Z,62.45
2018-07-26T22:21:46.751Z,63.27
2018-07-26T22:24:15.610Z,61.88
2018-07-26T22:26:44.472Z,61.82
2018-07-26T22:29:13.428Z,62.29
2018-07-26T22:31:42.336Z,67.16
2018-07-26T22:34:11.211Z,68.41
2018-07-26T22:36:40.158Z,67.75
2018-07-26T22:39:10.739Z,65.95
2018-07-26T22:41:39.693Z,66.82
2018-07-26T22:44:08.691Z,68.28
2018-07-26T22:46:37.636Z,68.17
2018-07-26T22:49:06.644Z,67.79
2018-07-26T22:51:35.617Z,67.62
2018-07-26T22:54:04.902Z,67.06
2018-07-26T22:56:34.066Z,66.87
2018-07-26T22:59:03.034Z,67.04
2018-07-26T23:01:31.974Z,66.65
2018-07-26T23:04:00.888Z,66.80
2018-07-26T23:06:29.790Z,68.20
2018-07-26T23:08:58.727Z,68.53
2018-07-26T23:11:27.688Z,68.44
2018-07-26T23:13:56.513Z,69.68
2018-07-26T23:16:25.400Z,69.13
2018-07-26T23:18:54.325Z,69.08
2018-07-26T23:21:23.250Z,68.81
2018-07-26T23:23:52.116Z,67.60
2018-07-26T23:26:20.998Z,68.20
2018-07-26T23:28:49.868Z,67.45
2018-07-26T23:31:18.928Z,67.63
2018-07-26T23:33:47.789Z,68.21
2018-07-26T23:36:16.764Z,68.01
2018-07-26T23:38:45.805Z,69.84
2018-07-26T23:41:14.608Z,70.45
2018-07-26T23:43:43.499Z,70.44
2018-07-26T23:46:12.461Z,70.25
2018-07-26T23:48:41.346Z,70.94
2018-07-26T23:51:10.274Z,71.68
2018-07-26T23:53:39.266Z,71.54
2018-07-26T23:56:08.089Z,72.48
2018-07-26T23:58:36.949Z,72.06
